Time;durP1;ratioP1;P1;durP2;ratioP2;P2;SDS_P1;SDS_P2;PMS_P1;PMS_P2;Temp;Humidity;BMP_temperature;BMP_pressure;BME280_temperature;BME280_humidity;BME280_pressure;Samples;Min_cycle;Max_cycle;Signal;HPM_P1;HPM_P2
2023/06/10 00:02:07;;;;;;;;;;;18.90;99.90;;;;;;5034284;28;19928;-70
2023/06/10 00:04:36;;;;;;;;;;;18.80;99.90;;;;;;5028407;28;19921;-70
2023/06/10 00:07:03;;;;;;;;;;;18.70;99.90;;;;;;5043823;28;20263;-70
2023/06/10 00:09:30;;;;;;;;;;;18.60;99.90;;;;;;5044278;28;19921;-69
2023/06/10 00:11:59;;;;;;;;;;;18.60;99.90;;;;;;5044135;28;19921;-69
2023/06/10 00:14:26;;;;;;;;;;;18.60;99.90;;;;;;5043477;28;19965;-69
2023/06/10 00:16:52;;;;;;;;;;;18.50;99.90;;;;;;5043707;28;19988;-69
2023/06/10 00:19:19;;;;;;;;;;;18.50;99.90;;;;;;5043420;28;19927;-70
2023/06/10 00:21:47;;;;;;;;;;;18.50;99.90;;;;;;5043721;28;19921;-70
2023/06/10 00:24:14;;;;;;;;;;;18.40;99.90;;;;;;5030696;28;19992;-70
2023/06/10 00:26:41;;;;;;;;;;;18.30;99.90;;;;;;5043760;28;20085;-70
2023/06/10 00:29:08;;;;;;;;;;;18.10;99.90;;;;;;5030710;28;19984;-69
2023/06/10 00:31:34;;;;;;;;;;;18.10;99.90;;;;;;5023924;28;19921;-69
2023/06/10 00:34:03;;;;;;;;;;;18.00;99.90;;;;;;5035730;28;19992;-70
2023/06/10 00:36:29;;;;;;;;;;;17.90;99.90;;;;;;5043377;28;19960;-70
2023/06/10 00:38:58;;;;;;;;;;;17.80;99.90;;;;;;5043383;28;20235;-70
2023/06/10 00:41:27;;;;;;;;;;;17.80;99.90;;;;;;5038666;28;19921;-70
2023/06/10 00:43:54;;;;;;;;;;;17.80;99.90;;;;;;5023427;28;19921;-69
2023/06/10 00:46:21;;;;;;;;;;;17.70;99.90;;;;;;5040390;28;19921;-70
2023/06/10 00:48:47;;;;;;;;;;;17.70;99.90;;;;;;5043491;28;19931;-69
2023/06/10 00:51:18;;;;;;;;;;;17.70;99.90;;;;;;5041539;28;19921;-70
2023/06/10 00:53:45;;;;;;;;;;;17.60;99.90;;;;;;5041126;28;19988;-70
2023/06/10 00:56:14;;;;;;;;;;;17.60;99.90;;;;;;5042580;28;19943;-70
2023/06/10 00:58:41;;;;;;;;;;;17.60;99.90;;;;;;5043129;28;19995;-70
2023/06/10 01:01:10;;;;;;;;;;;17.60;99.90;;;;;;5043401;28;19921;-70
2023/06/10 01:03:37;;;;;;;;;;;17.50;99.90;;;;;;5043123;28;19984;-70
2023/06/10 01:06:17;;;;;;;;;;;17.30;99.90;;;;;;5038985;28;19961;-69
2023/06/10 01:08:47;;;;;;;;;;;17.10;99.90;;;;;;5036708;28;19927;-69
2023/06/10 01:11:18;;;;;;;;;;;16.90;99.90;;;;;;5043134;28;19921;-70
2023/06/10 01:13:46;;;;;;;;;;;16.90;99.90;;;;;;5037112;28;19984;-68
2023/06/10 01:16:12;;;;;;;;;;;16.80;99.90;;;;;;5045425;28;19929;-72
2023/06/10 01:18:41;;;;;;;;;;;16.70;99.90;;;;;;5047414;28;19928;-69
2023/06/10 01:21:09;;;;;;;;;;;16.70;99.90;;;;;;5047282;28;19928;-70
2023/06/10 01:23:37;;;;;;;;;;;16.70;99.90;;;;;;5046982;28;20213;-69
2023/06/10 01:26:07;;;;;;;;;;;16.70;99.90;;;;;;5027340;28;20001;-69
2023/06/10 01:28:37;;;;;;;;;;;16.70;99.90;;;;;;5027082;28;19929;-69
2023/06/10 01:31:09;;;;;;;;;;;16.70;99.90;;;;;;5027315;28;19930;-69
2023/06/10 01:33:38;;;;;;;;;;;16.70;99.90;;;;;;5038043;28;20208;-69
2023/06/10 01:36:04;;;;;;;;;;;16.70;99.90;;;;;;5046041;28;19921;-69
2023/06/10 01:38:33;;;;;;;;;;;16.70;99.90;;;;;;5046854;28;19921;-69
2023/06/10 01:41:01;;;;;;;;;;;16.70;99.90;;;;;;5046953;28;19921;-69
2023/06/10 01:43:28;;;;;;;;;;;16.70;99.90;;;;;;5046963;28;19921;-68
2023/06/10 01:45:54;;;;;;;;;;;16.70;99.90;;;;;;5045640;28;19921;-69
2023/06/10 01:48:21;;;;;;;;;;;16.70;99.90;;;;;;5046228;28;19984;-70
2023/06/10 01:50:48;;;;;;;;;;;16.60;99.90;;;;;;5046839;28;19931;-69
2023/06/10 01:53:14;;;;;;;;;;;16.70;99.90;;;;;;5046592;28;19992;-69
2023/06/10 01:55:42;;;;;;;;;;;16.60;99.90;;;;;;5043482;28;19921;-69
2023/06/10 01:58:10;;;;;;;;;;;16.60;99.90;;;;;;5046702;28;19967;-70
2023/06/10 02:00:36;;;;;;;;;;;16.50;99.90;;;;;;5046783;28;19927;-69
2023/06/10 02:03:03;;;;;;;;;;;16.50;99.90;;;;;;5039163;28;20157;-68
2023/06/10 02:05:30;;;;;;;;;;;16.40;99.90;;;;;;5045441;28;19927;-68
2023/06/10 02:07:56;;;;;;;;;;;16.40;99.90;;;;;;5046546;28;19988;-69
2023/06/10 02:10:23;;;;;;;;;;;16.30;99.90;;;;;;5046289;28;19949;-70
2023/06/10 02:12:50;;;;;;;;;;;16.30;99.90;;;;;;5046380;28;19984;-69
2023/06/10 02:15:17;;;;;;;;;;;16.30;99.90;;;;;;5045237;28;19989;-69
2023/06/10 02:17:45;;;;;;;;;;;16.30;99.90;;;;;;5046137;28;19921;-70
2023/06/10 02:20:13;;;;;;;;;;;16.30;99.90;;;;;;5046507;28;19921;-69
2023/06/10 02:22:40;;;;;;;;;;;16.30;99.90;;;;;;5045953;28;19988;-70
2023/06/10 02:25:07;;;;;;;;;;;16.20;99.90;;;;;;5045350;28;19921;-69
2023/06/10 02:27:33;;;;;;;;;;;16.20;99.90;;;;;;5027818;28;19928;-70
2023/06/10 02:30:00;;;;;;;;;;;16.10;99.90;;;;;;5026591;28;20164;-68
2023/06/10 02:32:29;;;;;;;;;;;16.10;99.90;;;;;;5035377;28;19943;-68
2023/06/10 02:34:56;;;;;;;;;;;16.00;99.90;;;;;;5045530;28;19921;-72
2023/06/10 02:37:22;;;;;;;;;;;15.90;99.90;;;;;;5045952;28;19928;-69
2023/06/10 02:39:49;;;;;;;;;;;15.80;99.90;;;;;;5045631;28;19921;-68
2023/06/10 02:42:15;;;;;;;;;;;15.70;99.90;;;;;;5046003;28;19988;-71
2023/06/10 02:44:42;;;;;;;;;;;15.60;99.90;;;;;;5044718;28;19955;-70
2023/06/10 02:47:09;;;;;;;;;;;15.60;99.90;;;;;;5045665;28;19988;-70
2023/06/10 02:49:36;;;;;;;;;;;15.50;99.90;;;;;;5045565;28;19929;-69
2023/06/10 02:52:03;;;;;;;;;;;15.40;99.90;;;;;;5045799;28;19928;-70
2023/06/10 02:54:30;;;;;;;;;;;15.30;99.90;;;;;;5041734;28;19921;-70
2023/06/10 02:56:56;;;;;;;;;;;15.30;99.90;;;;;;5045415;28;19921;-69
2023/06/10 02:59:23;;;;;;;;;;;15.20;99.90;;;;;;5045496;28;19920;-70
2023/06/10 03:01:50;;;;;;;;;;;15.20;99.90;;;;;;5045503;28;19984;-70
2023/06/10 03:04:16;;;;;;;;;;;15.20;99.90;;;;;;5044623;28;19927;-70
2023/06/10 03:06:45;;;;;;;;;;;15.30;99.90;;;;;;5045321;28;19996;-70
2023/06/10 03:09:12;;;;;;;;;;;15.30;99.90;;;;;;5045172;28;19927;-70
2023/06/10 03:11:38;;;;;;;;;;;15.30;99.90;;;;;;5045123;28;19951;-69
2023/06/10 03:14:05;;;;;;;;;;;15.30;99.90;;;;;;5044575;28;19988;-70
2023/06/10 03:16:31;;;;;;;;;;;15.30;99.90;;;;;;5045307;28;20148;-69
2023/06/10 03:18:58;;;;;;;;;;;15.30;99.90;;;;;;5045104;28;19928;-70
2023/06/10 03:21:25;;;;;;;;;;;15.20;99.90;;;;;;5044822;28;19988;-70
2023/06/10 03:23:53;;;;;;;;;;;15.20;99.90;;;;;;5044335;28;19932;-69
2023/06/10 03:26:21;;;;;;;;;;;15.20;99.90;;;;;;5024903;28;19921;-69
2023/06/10 03:28:48;;;;;;;;;;;15.20;99.90;;;;;;5025203;28;19921;-69
2023/06/10 03:31:16;;;;;;;;;;;15.20;99.90;;;;;;5037555;28;19925;-69
2023/06/10 03:33:43;;;;;;;;;;;15.10;99.90;;;;;;5044996;28;19925;-68
2023/06/10 03:36:09;;;;;;;;;;;15.10;99.90;;;;;;5043754;28;19988;-69
2023/06/10 03:38:36;;;;;;;;;;;15.10;99.90;;;;;;5044327;28;20308;-69
2023/06/10 03:41:04;;;;;;;;;;;15.10;99.90;;;;;;5044783;28;19979;-69
2023/06/10 03:43:31;;;;;;;;;;;15.10;99.90;;;;;;5044726;28;20141;-69
2023/06/10 03:45:58;;;;;;;;;;;15.10;99.90;;;;;;5043724;28;20259;-69
2023/06/10 03:48:25;;;;;;;;;;;15.10;99.90;;;;;;5044717;28;19984;-69
2023/06/10 03:50:52;;;;;;;;;;;15.00;99.90;;;;;;5044485;28;19953;-69
2023/06/10 03:53:18;;;;;;;;;;;15.00;99.90;;;;;;5042020;28;19925;-68
2023/06/10 03:55:45;;;;;;;;;;;15.00;99.90;;;;;;5034405;28;20377;-69
2023/06/10 03:58:14;;;;;;;;;;;15.00;99.90;;;;;;5044363;28;19921;-69
2023/06/10 04:00:42;;;;;;;;;;;14.90;99.90;;;;;;5044549;28;19921;-69
2023/06/10 04:03:14;;;;;;;;;;;14.90;99.90;;;;;;5044421;28;20094;-69
2023/06/10 04:05:40;;;;;;;;;;;15.00;99.90;;;;;;5043380;28;19963;-70
2023/06/10 04:08:07;;;;;;;;;;;15.00;99.90;;;;;;5044396;28;19929;-69
2023/06/10 04:10:34;;;;;;;;;;;15.00;99.90;;;;;;5044248;28;19943;-69
2023/06/10 04:13:00;;;;;;;;;;;15.10;99.90;;;;;;5044109;28;19926;-69
2023/06/10 04:15:28;;;;;;;;;;;15.00;99.90;;;;;;5043595;28;19921;-70
2023/06/10 04:17:55;;;;;;;;;;;15.00;99.90;;;;;;5044071;28;19929;-69
2023/06/10 04:20:22;;;;;;;;;;;15.10;99.90;;;;;;5043486;28;20000;-70
2023/06/10 04:22:48;;;;;;;;;;;15.10;99.90;;;;;;5044077;28;19955;-70
2023/06/10 04:25:16;;;;;;;;;;;15.10;99.90;;;;;;5030837;28;19928;-70
2023/06/10 04:27:42;;;;;;;;;;;15.20;99.90;;;;;;5024263;28;19928;-70
2023/06/10 04:30:09;;;;;;;;;;;15.20;99.90;;;;;;5032289;28;19948;-70
2023/06/10 04:32:37;;;;;;;;;;;15.30;99.90;;;;;;5043639;28;20247;-70
2023/06/10 04:35:04;;;;;;;;;;;15.40;99.90;;;;;;5042675;28;19920;-70
2023/06/10 04:37:31;;;;;;;;;;;15.50;99.90;;;;;;5043981;28;19988;-70
2023/06/10 04:39:59;;;;;;;;;;;15.60;99.90;;;;;;5043457;28;20272;-71
2023/06/10 04:42:25;;;;;;;;;;;15.60;99.90;;;;;;5043635;28;19929;-70
2023/06/10 04:44:52;;;;;;;;;;;15.70;99.90;;;;;;5042563;28;19952;-70
2023/06/10 04:47:24;;;;;;;;;;;15.80;99.90;;;;;;5039942;28;19984;-70
2023/06/10 04:49:52;;;;;;;;;;;15.90;99.90;;;;;;5042915;28;19988;-69
2023/06/10 04:52:19;;;;;;;;;;;16.00;99.90;;;;;;5041565;28;20723;-69
2023/06/10 04:54:48;;;;;;;;;;;16.10;99.90;;;;;;5040428;28;19932;-70
2023/06/10 04:57:15;;;;;;;;;;;16.20;99.90;;;;;;5042575;28;19921;-69
2023/06/10 04:59:41;;;;;;;;;;;16.30;99.90;;;;;;5043493;28;19921;-70
2023/06/10 05:02:08;;;;;;;;;;;16.40;99.90;;;;;;5043260;28;20263;-70
2023/06/10 05:04:35;;;;;;;;;;;16.50;99.90;;;;;;5042785;28;19993;-70
2023/06/10 05:07:03;;;;;;;;;;;16.70;99.90;;;;;;5043482;28;19928;-70
2023/06/10 05:09:30;;;;;;;;;;;16.80;99.90;;;;;;5043526;28;19921;-70
2023/06/10 05:11:56;;;;;;;;;;;16.90;99.90;;;;;;5042950;28;20287;-70
2023/06/10 05:14:23;;;;;;;;;;;17.00;99.90;;;;;;5042630;28;20244;-73
2023/06/10 05:16:50;;;;;;;;;;;17.20;99.90;;;;;;5040327;28;19984;-69
2023/06/10 05:19:17;;;;;;;;;;;17.20;99.90;;;;;;5043436;28;19952;-70
2023/06/10 05:21:45;;;;;;;;;;;17.40;99.90;;;;;;5042870;28;19967;-70
2023/06/10 05:24:13;;;;;;;;;;;17.50;99.90;;;;;;5038782;28;19929;-69
2023/06/10 05:26:40;;;;;;;;;;;17.60;99.90;;;;;;5023153;28;19922;-69
2023/06/10 05:29:08;;;;;;;;;;;17.70;99.90;;;;;;5035623;28;19971;-70
2023/06/10 05:31:34;;;;;;;;;;;17.70;99.90;;;;;;5042989;28;19921;-69
2023/06/10 05:34:01;;;;;;;;;;;17.90;99.90;;;;;;5042190;28;19988;-70
2023/06/10 05:36:27;;;;;;;;;;;18.00;99.90;;;;;;5043148;28;19928;-70
2023/06/10 05:38:54;;;;;;;;;;;18.10;99.90;;;;;;5043031;28;20229;-70
2023/06/10 05:41:30;;;;;;;;;;;18.20;99.90;;;;;;5040140;28;20137;-69
2023/06/10 05:43:57;;;;;;;;;;;18.40;99.90;;;;;;5041076;28;20205;-69
2023/06/10 05:46:24;;;;;;;;;;;18.50;99.90;;;;;;5042555;28;19989;-69
2023/06/10 05:48:50;;;;;;;;;;;18.60;99.90;;;;;;5042543;28;19992;-70
2023/06/10 05:51:17;;;;;;;;;;;18.80;99.90;;;;;;5042731;28;19929;-71
2023/06/10 05:53:46;;;;;;;;;;;18.90;99.90;;;;;;5043212;28;19963;-71
2023/06/10 05:56:12;;;;;;;;;;;19.00;99.90;;;;;;5042561;28;19963;-71
2023/06/10 05:58:40;;;;;;;;;;;19.10;99.90;;;;;;5043416;28;19989;-72
2023/06/10 06:01:07;;;;;;;;;;;19.20;99.90;;;;;;5038445;28;19992;-72
2023/06/10 06:03:34;;;;;;;;;;;19.30;99.90;;;;;;5047093;28;20165;-72
2023/06/10 06:06:00;;;;;;;;;;;19.30;99.90;;;;;;5041786;28;20013;-71
2023/06/10 06:08:27;;;;;;;;;;;19.40;99.90;;;;;;5046911;28;19921;-72
2023/06/10 06:10:54;;;;;;;;;;;19.40;99.90;;;;;;5046740;28;19963;-72
2023/06/10 06:13:20;;;;;;;;;;;19.50;99.90;;;;;;5046080;28;19940;-70
2023/06/10 06:15:48;;;;;;;;;;;19.60;99.90;;;;;;5044459;28;20041;-69
2023/06/10 06:18:15;;;;;;;;;;;19.70;99.90;;;;;;5046271;28;19921;-69
2023/06/10 06:20:41;;;;;;;;;;;19.80;99.90;;;;;;5045967;28;20268;-69
2023/06/10 06:23:09;;;;;;;;;;;19.80;99.90;;;;;;5046386;28;19985;-68
2023/06/10 06:25:38;;;;;;;;;;;20.00;99.90;;;;;;5045363;28;20109;-70
2023/06/10 06:28:05;;;;;;;;;;;20.00;99.90;;;;;;5045790;28;19964;-68
2023/06/10 06:30:31;;;;;;;;;;;20.00;99.90;;;;;;5045788;28;19927;-68
2023/06/10 06:32:59;;;;;;;;;;;20.10;99.90;;;;;;5046098;28;19985;-68
2023/06/10 06:35:26;;;;;;;;;;;20.10;99.90;;;;;;5025063;28;19921;-69
2023/06/10 06:37:53;;;;;;;;;;;20.20;99.90;;;;;;5044754;28;19952;-67
2023/06/10 06:40:19;;;;;;;;;;;20.30;99.90;;;;;;5045157;28;19921;-70
2023/06/10 06:42:46;;;;;;;;;;;20.30;99.90;;;;;;5045656;28;19921;-68
2023/06/10 06:45:13;;;;;;;;;;;20.30;99.90;;;;;;5044052;28;19927;-69
2023/06/10 06:47:39;;;;;;;;;;;20.30;99.90;;;;;;5045704;28;19921;-68
2023/06/10 06:50:08;;;;;;;;;;;20.40;99.90;;;;;;5031916;28;20284;-68
2023/06/10 06:52:34;;;;;;;;;;;20.50;99.90;;;;;;5042927;28;19928;-68
2023/06/10 06:55:01;;;;;;;;;;;20.50;99.90;;;;;;5039609;28;20237;-69
2023/06/10 06:57:27;;;;;;;;;;;20.50;99.90;;;;;;5045559;28;19921;-69
2023/06/10 06:59:54;;;;;;;;;;;20.60;99.90;;;;;;5045065;28;19965;-69
2023/06/10 07:02:21;;;;;;;;;;;20.70;99.90;;;;;;5035915;28;19952;-69
2023/06/10 07:04:48;;;;;;;;;;;20.80;99.90;;;;;;5043604;28;19980;-69
2023/06/10 07:07:18;;;;;;;;;;;20.80;99.90;;;;;;5042540;28;19927;-69
2023/06/10 07:09:45;;;;;;;;;;;20.90;99.90;;;;;;5044945;28;19928;-69
2023/06/10 07:12:12;;;;;;;;;;;21.00;99.90;;;;;;5044502;28;19943;-68
2023/06/10 07:14:38;;;;;;;;;;;21.10;99.90;;;;;;5043867;28;20239;-68
2023/06/10 07:17:05;;;;;;;;;;;21.10;99.90;;;;;;5044997;28;19927;-70
2023/06/10 07:19:31;;;;;;;;;;;21.20;99.90;;;;;;5045069;28;19925;-71
2023/06/10 07:21:58;;;;;;;;;;;21.30;99.90;;;;;;5044437;28;19927;-68
2023/06/10 07:24:26;;;;;;;;;;;21.30;99.90;;;;;;5044737;28;19959;-68
2023/06/10 07:26:53;;;;;;;;;;;21.40;99.90;;;;;;5033809;28;19980;-69
2023/06/10 07:29:19;;;;;;;;;;;21.40;99.90;;;;;;5024904;28;19927;-69
2023/06/10 07:31:46;;;;;;;;;;;21.50;99.90;;;;;;5027727;28;19927;-69
2023/06/10 07:34:12;;;;;;;;;;;21.60;99.90;;;;;;5043975;28;20168;-69
2023/06/10 07:36:39;;;;;;;;;;;21.60;99.90;;;;;;5043951;28;19983;-69
2023/06/10 07:39:06;;;;;;;;;;;21.60;99.90;;;;;;5044415;28;20116;-69
2023/06/10 07:41:35;;;;;;;;;;;21.60;99.90;;;;;;5044642;28;20113;-69
2023/06/10 07:44:01;;;;;;;;;;;21.60;99.90;;;;;;5041889;28;19943;-69
2023/06/10 07:46:28;;;;;;;;;;;21.70;99.90;;;;;;5044468;28;19975;-69
2023/06/10 07:48:55;;;;;;;;;;;21.70;99.90;;;;;;5044344;28;19984;-68
2023/06/10 07:51:22;;;;;;;;;;;21.60;99.90;;;;;;5044218;28;19921;-69
2023/06/10 07:53:48;;;;;;;;;;;21.70;99.90;;;;;;5044120;28;19988;-70
2023/06/10 07:56:15;;;;;;;;;;;21.80;99.90;;;;;;5041521;28;19980;-69
2023/06/10 07:58:43;;;;;;;;;;;21.90;99.90;;;;;;5044268;28;20000;-70
2023/06/10 08:01:10;;;;;;;;;;;22.00;99.90;;;;;;5043696;28;19957;-70
2023/06/10 08:03:36;;;;;;;;;;;22.00;99.90;;;;;;5044082;28;20280;-71
2023/06/10 08:06:03;;;;;;;;;;;22.10;99.90;;;;;;5043670;28;19928;-70
2023/06/10 08:08:30;;;;;;;;;;;22.10;99.90;;;;;;5044002;28;19921;-70
2023/06/10 08:10:56;;;;;;;;;;;22.20;99.90;;;;;;5044294;28;19980;-69
2023/06/10 08:13:24;;;;;;;;;;;22.20;99.90;;;;;;5042148;28;20207;-71
2023/06/10 08:15:54;;;;;;;;;;;22.30;99.90;;;;;;5043793;28;19921;-71
2023/06/10 08:18:21;;;;;;;;;;;22.30;99.90;;;;;;5044142;28;19921;-71
2023/06/10 08:20:48;;;;;;;;;;;22.30;99.90;;;;;;5044218;28;19988;-71
2023/06/10 08:23:14;;;;;;;;;;;22.40;99.90;;;;;;5044301;28;20004;-71
2023/06/10 08:25:41;;;;;;;;;;;22.40;99.90;;;;;;5033421;28;19928;-71
2023/06/10 08:28:08;;;;;;;;;;;22.50;99.90;;;;;;5040411;28;20116;-71
2023/06/10 08:30:34;;;;;;;;;;;22.50;99.90;;;;;;5044290;28;19956;-71
2023/06/10 08:33:02;;;;;;;;;;;22.50;99.90;;;;;;5044185;28;19993;-71
2023/06/10 08:35:29;;;;;;;;;;;22.60;99.90;;;;;;5043093;28;19960;-72
2023/06/10 08:37:58;;;;;;;;;;;22.60;99.90;;;;;;5031126;28;19927;-70
2023/06/10 08:40:25;;;;;;;;;;;22.70;99.90;;;;;;5044383;28;19992;-70
2023/06/10 08:42:54;;;;;;;;;;;22.70;99.90;;;;;;5043798;28;20112;-69
2023/06/10 08:45:22;;;;;;;;;;;22.80;99.90;;;;;;5042785;28;19924;-73
2023/06/10 08:47:51;;;;;;;;;;;22.90;99.90;;;;;;5044068;28;19976;-71
2023/06/10 08:50:19;;;;;;;;;;;22.90;99.90;;;;;;5043738;28;19943;-68
2023/06/10 08:52:48;;;;;;;;;;;23.00;99.90;;;;;;5043734;28;19980;-69
2023/06/10 08:55:17;;;;;;;;;;;23.00;99.90;;;;;;5042874;28;19957;-70
2023/06/10 08:57:45;;;;;;;;;;;23.10;99.90;;;;;;5035443;28;20205;-70
2023/06/10 09:00:12;;;;;;;;;;;23.20;99.90;;;;;;5044518;28;20212;-71
2023/06/10 09:02:39;;;;;;;;;;;23.20;99.90;;;;;;5046209;28;19984;-70
2023/06/10 09:05:06;;;;;;;;;;;23.20;99.90;;;;;;5043132;28;19952;-71
2023/06/10 09:07:36;;;;;;;;;;;23.30;99.90;;;;;;5043761;28;19921;-72
2023/06/10 09:10:06;;;;;;;;;;;23.40;99.90;;;;;;5043535;28;19921;-72
2023/06/10 09:12:33;;;;;;;;;;;23.40;99.90;;;;;;5043158;28;19933;-71
2023/06/10 09:15:02;;;;;;;;;;;23.40;99.90;;;;;;5040043;28;19983;-71
2023/06/10 09:17:29;;;;;;;;;;;23.50;99.90;;;;;;5043576;28;19980;-72
2023/06/10 09:19:56;;;;;;;;;;;23.60;99.90;;;;;;5043083;28;19953;-72
2023/06/10 09:22:23;;;;;;;;;;;23.60;99.90;;;;;;5043258;28;20308;-72
2023/06/10 09:24:51;;;;;;;;;;;23.70;99.90;;;;;;5040231;28;19921;-72
2023/06/10 09:27:18;;;;;;;;;;;23.80;99.90;;;;;;5043470;28;19921;-71
2023/06/10 09:29:48;;;;;;;;;;;23.80;99.90;;;;;;5042968;28;20173;-72
2023/06/10 09:32:15;;;;;;;;;;;23.90;99.90;;;;;;5043057;28;19928;-71
2023/06/10 09:34:41;;;;;;;;;;;24.00;99.90;;;;;;5042468;28;20149;-71
2023/06/10 09:37:11;;;;;;;;;;;24.10;99.90;;;;;;5046069;28;19925;-71
2023/06/10 09:39:41;;;;;;;;;;;24.20;99.90;;;;;;5046572;28;20188;-70
2023/06/10 09:42:24;;;;;;;;;;;24.20;99.90;;;;;;5045663;28;20217;-69
2023/06/10 09:45:21;;;;;;;;;;;24.20;99.90;;;;;;5069372;22;19951;-70
2023/06/10 10:03:07;;;;;;;;;;;24.90;99.90;;;;;;5020330;28;19920;-67
2023/06/10 10:05:34;;;;;;;;;;;25.00;99.90;;;;;;5026028;28;19925;-68
2023/06/10 10:08:00;;;;;;;;;;;25.10;99.90;;;;;;5035071;28;20097;-68
2023/06/10 10:10:27;;;;;;;;;;;25.20;99.90;;;;;;5034378;28;19960;-68
2023/06/10 10:12:55;;;;;;;;;;;25.30;99.90;;;;;;5029069;28;19921;-67
2023/06/10 10:15:23;;;;;;;;;;;25.30;99.90;;;;;;5038616;28;19922;-67
2023/06/10 10:17:50;;;;;;;;;;;25.40;99.90;;;;;;5025503;28;19952;-69
2023/06/10 10:20:21;;;;;;;;;;;25.50;99.90;;;;;;5026025;28;19963;-67
2023/06/10 10:22:52;;;;;;;;;;;25.60;99.90;;;;;;5031127;28;19921;-67
2023/06/10 10:25:23;;;;;;;;;;;25.60;99.90;;;;;;5036268;28;19953;-67
2023/06/10 10:27:52;;;;;;;;;;;25.60;99.90;;;;;;5041526;28;19921;-68
2023/06/10 10:30:21;;;;;;;;;;;25.60;99.90;;;;;;5025753;28;19928;-69
2023/06/10 10:32:52;;;;;;;;;;;25.60;99.90;;;;;;5023799;28;19927;-69
2023/06/10 10:35:23;;;;;;;;;;;25.70;99.90;;;;;;5041615;28;19984;-65
2023/06/10 10:37:52;;;;;;;;;;;25.80;99.90;;;;;;5027954;28;20141;-66
2023/06/10 10:40:19;;;;;;;;;;;25.90;99.90;;;;;;5028647;28;19964;-64
2023/06/10 10:42:46;;;;;;;;;;;26.10;99.90;;;;;;5025210;28;19964;-65
2023/06/10 10:45:13;;;;;;;;;;;26.20;99.90;;;;;;5022095;28;19981;-66
2023/06/10 10:47:40;;;;;;;;;;;26.20;99.90;;;;;;5026897;28;19921;-66
2023/06/10 10:50:14;;;;;;;;;;;26.10;99.90;;;;;;5006258;28;19988;-66
2023/06/10 10:52:53;;;;;;;;;;;25.80;99.90;;;;;;5025138;28;19922;-66
2023/06/10 10:55:20;;;;;;;;;;;25.60;99.90;;;;;;5024992;28;19960;-66
2023/06/10 10:57:54;;;;;;;;;;;25.60;99.90;;;;;;5025974;28;20252;-66
2023/06/10 11:00:25;;;;;;;;;;;25.60;99.90;;;;;;5024655;28;20458;-67
2023/06/10 11:02:53;;;;;;;;;;;25.80;99.90;;;;;;5026225;28;19927;-66
2023/06/10 11:05:31;;;;;;;;;;;25.90;99.90;;;;;;5045130;28;19921;-66
2023/06/10 11:07:59;;;;;;;;;;;25.80;99.90;;;;;;5045046;28;20012;-65
2023/06/10 11:10:30;;;;;;;;;;;25.80;99.90;;;;;;5034309;28;20000;-65
2023/06/10 11:12:57;;;;;;;;;;;25.90;99.90;;;;;;5025364;28;19922;-65
2023/06/10 11:15:24;;;;;;;;;;;26.00;99.90;;;;;;5027728;28;20012;-70
2023/06/10 11:18:10;;;;;;;;;;;26.00;99.90;;;;;;5026185;28;19945;-66
2023/06/10 11:20:43;;;;;;;;;;;26.00;99.90;;;;;;5025088;28;19922;-67
2023/06/10 11:23:11;;;;;;;;;;;26.00;99.90;;;;;;5042079;28;19927;-67
2023/06/10 11:25:39;;;;;;;;;;;26.10;99.90;;;;;;5028190;28;19921;-67
2023/06/10 11:28:18;;;;;;;;;;;26.30;99.90;;;;;;5026169;28;19961;-66
2023/06/10 11:30:45;;;;;;;;;;;26.60;99.90;;;;;;5023714;28;20236;-65
2023/06/10 11:33:14;;;;;;;;;;;26.90;99.90;;;;;;5028165;28;20244;-66
2023/06/10 11:35:41;;;;;;;;;;;27.10;99.90;;;;;;5044576;28;19921;-66
2023/06/10 11:38:08;;;;;;;;;;;27.20;99.90;;;;;;5044717;28;19958;-65
2023/06/10 11:40:37;;;;;;;;;;;27.30;99.90;;;;;;5028402;28;19943;-66
2023/06/10 11:43:05;;;;;;;;;;;27.50;99.90;;;;;;5024896;28;19927;-66
2023/06/10 11:45:31;;;;;;;;;;;27.70;99.90;;;;;;5024093;28;19928;-66
2023/06/10 11:47:58;;;;;;;;;;;27.60;99.90;;;;;;5022636;28;19985;-66
2023/06/10 11:50:29;;;;;;;;;;;27.60;99.90;;;;;;5024616;28;19957;-66
2023/06/10 11:52:55;;;;;;;;;;;27.80;99.90;;;;;;5024608;28;19989;-66
2023/06/10 11:55:22;;;;;;;;;;;27.90;99.90;;;;;;5024258;28;19929;-66
2023/06/10 11:57:57;;;;;;;;;;;28.10;99.90;;;;;;5036326;28;19921;-67
2023/06/10 12:00:23;;;;;;;;;;;28.10;99.90;;;;;;5043536;28;19921;-67
2023/06/10 12:02:57;;;;;;;;;;;28.00;99.90;;;;;;5028781;28;19921;-66
2023/06/10 12:05:23;;;;;;;;;;;27.90;99.90;;;;;;5023583;28;19993;-68
2023/06/10 12:08:08;;;;;;;;;;;27.70;99.90;;;;;;5024276;28;19964;-67
2023/06/10 12:10:45;;;;;;;;;;;27.50;99.90;;;;;;5004295;28;19988;-66
2023/06/10 12:13:13;;;;;;;;;;;27.50;99.90;;;;;;5003560;28;19921;-67
2023/06/10 12:15:39;;;;;;;;;;;27.50;99.90;;;;;;5033922;28;20124;-67
2023/06/10 12:18:06;;;;;;;;;;;27.70;99.90;;;;;;5024080;28;19960;-67
2023/06/10 12:23:10;;;;;;;;;;;28.20;99.90;;;;;;5029884;26;19928;-86
2023/06/10 12:25:38;;;;;;;;;;;28.20;99.90;;;;;;5041189;28;20000;-88
2023/06/10 12:28:24;;;;;;;;;;;28.40;99.90;;;;;;5045225;28;19921;-86
2023/06/10 12:30:57;;;;;;;;;;;28.60;99.90;;;;;;5047119;28;19921;-85
2023/06/10 12:33:23;;;;;;;;;;;28.60;99.90;;;;;;5043487;28;19984;-88
2023/06/10 12:35:51;;;;;;;;;;;28.40;99.90;;;;;;5068718;22;19987;-68
2023/06/10 12:38:38;;;;;;;;;;;28.30;99.90;;;;;;5082810;28;20675;-69
2023/06/10 12:41:16;;;;;;;;;;;28.30;99.90;;;;;;5083369;28;19959;-68
2023/06/10 12:43:46;;;;;;;;;;;28.30;99.90;;;;;;5063554;28;19920;-68
2023/06/10 12:46:13;;;;;;;;;;;28.40;99.90;;;;;;5062251;28;19992;-68
2023/06/10 12:48:55;;;;;;;;;;;28.40;99.90;;;;;;5063174;28;19921;-68
2023/06/10 12:51:34;;;;;;;;;;;28.30;99.90;;;;;;5063091;28;19955;-68
2023/06/10 12:54:10;;;;;;;;;;;28.60;99.90;;;;;;5063201;28;19966;-69
2023/06/10 12:56:37;;;;;;;;;;;28.60;99.90;;;;;;5063171;28;19984;-68
2023/06/10 12:59:14;;;;;;;;;;;28.70;99.90;;;;;;5063160;28;19921;-68
2023/06/10 13:01:40;;;;;;;;;;;28.70;99.90;;;;;;5062623;28;19987;-68
2023/06/10 13:04:07;;;;;;;;;;;28.90;99.90;;;;;;5063295;28;20156;-68
2023/06/10 13:06:36;;;;;;;;;;;28.90;99.90;;;;;;5063118;28;19963;-69
2023/06/10 13:09:10;;;;;;;;;;;29.00;99.90;;;;;;5063195;28;19978;-68
2023/06/10 13:11:45;;;;;;;;;;;28.90;99.90;;;;;;5061969;28;19952;-68
2023/06/10 13:14:13;;;;;;;;;;;28.80;99.90;;;;;;5062840;28;19983;-68
2023/06/10 13:16:39;;;;;;;;;;;28.70;99.90;;;;;;5063263;28;19928;-69
2023/06/10 13:19:12;;;;;;;;;;;28.90;99.90;;;;;;5063122;28;19952;-69
2023/06/10 13:21:55;;;;;;;;;;;28.90;99.90;;;;;;5062049;28;20183;-68
2023/06/10 13:24:51;;;;;;;;;;;28.90;99.90;;;;;;5062852;28;19974;-68
2023/06/10 13:27:17;;;;;;;;;;;29.10;99.90;;;;;;5026727;28;19951;-68
2023/06/10 13:29:45;;;;;;;;;;;29.20;99.90;;;;;;5063346;28;19921;-69
2023/06/10 13:32:12;;;;;;;;;;;29.30;99.90;;;;;;5062513;28;19921;-68
2023/06/10 13:34:39;;;;;;;;;;;29.50;99.90;;;;;;5062878;28;19996;-70
2023/06/10 13:37:06;;;;;;;;;;;30.00;99.90;;;;;;5062308;28;19959;-69
2023/06/10 13:39:32;;;;;;;;;;;30.20;99.30;;;;;;5062596;28;19921;-69
2023/06/10 13:41:59;;;;;;;;;;;30.00;99.20;;;;;;5062261;28;19921;-69
2023/06/10 13:44:26;;;;;;;;;;;29.60;99.30;;;;;;5062064;28;19994;-69
2023/06/10 13:46:54;;;;;;;;;;;29.40;99.90;;;;;;5062778;28;20172;-68
2023/06/10 13:49:20;;;;;;;;;;;29.00;99.90;;;;;;5062516;28;19921;-69
2023/06/10 13:51:47;;;;;;;;;;;29.00;99.90;;;;;;5062026;28;20148;-69
2023/06/10 13:54:15;;;;;;;;;;;29.30;99.90;;;;;;5062592;28;19936;-69
2023/06/10 13:56:42;;;;;;;;;;;29.50;99.90;;;;;;5062328;28;19921;-69
2023/06/10 13:59:08;;;;;;;;;;;29.50;99.90;;;;;;5062616;28;20231;-69
2023/06/10 14:01:36;;;;;;;;;;;29.60;99.90;;;;;;5062124;28;19920;-69
2023/06/10 14:04:04;;;;;;;;;;;29.60;99.90;;;;;;5045745;28;20294;-70
2023/06/10 14:06:32;;;;;;;;;;;29.80;99.70;;;;;;5049336;28;19927;-69
2023/06/10 14:08:58;;;;;;;;;;;29.80;99.90;;;;;;5061175;28;19956;-69
2023/06/10 14:11:25;;;;;;;;;;;30.00;99.90;;;;;;5062078;28;20171;-70
2023/06/10 14:13:52;;;;;;;;;;;30.30;99.90;;;;;;5062217;28;19927;-69
2023/06/10 14:16:18;;;;;;;;;;;30.60;99.10;;;;;;5062704;28;19928;-69
2023/06/10 14:18:45;;;;;;;;;;;30.90;99.10;;;;;;5062535;28;19984;-69
2023/06/10 14:21:13;;;;;;;;;;;30.80;98.00;;;;;;5062323;28;20172;-69
2023/06/10 14:23:41;;;;;;;;;;;30.80;97.30;;;;;;5056738;28;19967;-69
2023/06/10 14:26:09;;;;;;;;;;;30.60;97.90;;;;;;5063141;28;19921;-69
2023/06/10 14:28:35;;;;;;;;;;;30.70;98.40;;;;;;5056805;28;19921;-69
2023/06/10 14:31:02;;;;;;;;;;;30.60;97.80;;;;;;5064495;28;19943;-70
2023/06/10 14:33:30;;;;;;;;;;;30.10;98.30;;;;;;5051615;28;19959;-69
2023/06/10 14:35:57;;;;;;;;;;;29.80;98.20;;;;;;5056978;28;19920;-69
2023/06/10 14:38:25;;;;;;;;;;;29.50;99.00;;;;;;5065696;28;20226;-69
2023/06/10 14:40:52;;;;;;;;;;;29.40;99.00;;;;;;5065498;28;19921;-69